sensor_id;sensor_type;location;lat;lon;timestamp;pressure;altitude;pressure_sealevel;temperature;humidity
80853;BME280;70270;43.434;28.338;2023-06-26T00:01:05;99539.41;;;24.16;64.12
80853;BME280;70270;43.434;28.338;2023-06-26T00:03:53;99536.78;;;24.24;63.67
80853;BME280;70270;43.434;28.338;2023-06-26T00:06:37;99427.31;;;23.54;63.66
80853;BME280;70270;43.434;28.338;2023-06-26T00:09:22;99514.41;;;24.21;63.80
80853;BME280;70270;43.434;28.338;2023-06-26T00:12:07;99521.97;;;24.15;64.13
80853;BME280;70270;43.434;28.338;2023-06-26T00:14:52;99530.28;;;24.15;64.31
80853;BME280;70270;43.434;28.338;2023-06-26T00:17:37;99442.53;;;23.70;64.36
80853;BME280;70270;43.434;28.338;2023-06-26T00:20:22;99510.47;;;24.08;64.52
80853;BME280;70270;43.434;28.338;2023-06-26T00:23:07;99529.84;;;24.08;64.81
80853;BME280;70270;43.434;28.338;2023-06-26T00:25:52;99428.50;;;23.48;64.80
80853;BME280;70270;43.434;28.338;2023-06-26T00:28:36;99530.59;;;24.14;64.58
80853;BME280;70270;43.434;28.338;2023-06-26T00:31:21;99438.38;;;23.54;64.49
80853;BME280;70270;43.434;28.338;2023-06-26T00:34:06;99533.06;;;24.15;64.85
80853;BME280;70270;43.434;28.338;2023-06-26T00:36:50;99523.56;;;24.21;64.30
80853;BME280;70270;43.434;28.338;2023-06-26T00:39:35;99436.56;;;23.63;64.24
80853;BME280;70270;43.434;28.338;2023-06-26T00:42:20;99532.81;;;24.31;64.02
80853;BME280;70270;43.434;28.338;2023-06-26T00:45:04;99536.97;;;24.28;64.25
80853;BME280;70270;43.434;28.338;2023-06-26T00:47:52;99525.63;;;24.30;64.38
80853;BME280;70270;43.434;28.338;2023-06-26T00:50:37;99533.31;;;24.33;64.33
80853;BME280;70270;43.434;28.338;2023-06-26T00:53:22;99520.47;;;24.23;64.31
80853;BME280;70270;43.434;28.338;2023-06-26T00:56:08;99535.56;;;24.31;64.18
80853;BME280;70270;43.434;28.338;2023-06-26T00:58:54;99534.53;;;24.27;64.26
80853;BME280;70270;43.434;28.338;2023-06-26T01:01:39;99525.41;;;24.26;64.46
80853;BME280;70270;43.434;28.338;2023-06-26T01:04:23;99499.31;;;24.13;64.49
80853;BME280;70270;43.434;28.338;2023-06-26T01:07:12;99541.00;;;24.36;64.41
80853;BME280;70270;43.434;28.338;2023-06-26T01:09:57;99459.38;;;23.87;64.44
80853;BME280;70270;43.434;28.338;2023-06-26T01:12:45;99533.31;;;24.33;64.15
80853;BME280;70270;43.434;28.338;2023-06-26T01:15:29;99489.53;;;24.02;64.29
80853;BME280;70270;43.434;28.338;2023-06-26T01:18:14;99539.25;;;24.26;64.28
80853;BME280;70270;43.434;28.338;2023-06-26T01:20:59;99539.88;;;24.23;64.58
80853;BME280;70270;43.434;28.338;2023-06-26T01:26:44;99502.25;;;24.03;65.05
80853;BME280;70270;43.434;28.338;2023-06-26T01:29:33;99524.66;;;24.20;64.80
80853;BME280;70270;43.434;28.338;2023-06-26T01:32:18;99525.91;;;24.14;64.91
80853;BME280;70270;43.434;28.338;2023-06-26T01:35:06;99519.59;;;24.09;65.37
80853;BME280;70270;43.434;28.338;2023-06-26T01:37:51;99517.22;;;24.02;65.63
80853;BME280;70270;43.434;28.338;2023-06-26T01:40:35;99474.13;;;23.83;65.78
80853;BME280;70270;43.434;28.338;2023-06-26T01:46:57;99515.03;;;24.18;65.95
80853;BME280;70270;43.434;28.338;2023-06-26T01:49:47;99518.63;;;24.18;65.83
80853;BME280;70270;43.434;28.338;2023-06-26T01:52:59;99496.69;;;24.03;65.73
80853;BME280;70270;43.434;28.338;2023-06-26T01:55:53;99516.69;;;24.33;65.75
80853;BME280;70270;43.434;28.338;2023-06-26T01:58:43;99503.16;;;24.31;65.62
80853;BME280;70270;43.434;28.338;2023-06-26T02:01:29;99509.41;;;24.37;65.68
80853;BME280;70270;43.434;28.338;2023-06-26T02:04:15;99500.06;;;24.33;65.73
80853;BME280;70270;43.434;28.338;2023-06-26T02:07:00;99516.69;;;24.33;66.04
80853;BME280;70270;43.434;28.338;2023-06-26T02:09:47;99494.03;;;24.31;65.63
80853;BME280;70270;43.434;28.338;2023-06-26T02:12:31;99485.72;;;24.31;65.55
80853;BME280;70270;43.434;28.338;2023-06-26T02:15:16;99496.19;;;24.34;65.81
80853;BME280;70270;43.434;28.338;2023-06-26T02:18:03;99506.34;;;24.52;65.86
80853;BME280;70270;43.434;28.338;2023-06-26T02:20:48;99495.25;;;24.52;65.79
80853;BME280;70270;43.434;28.338;2023-06-26T02:23:32;99474.63;;;24.44;65.81
80853;BME280;70270;43.434;28.338;2023-06-26T02:26:17;99462.34;;;24.23;66.14
80853;BME280;70270;43.434;28.338;2023-06-26T02:29:01;99498.66;;;24.49;66.16
80853;BME280;70270;43.434;28.338;2023-06-26T02:31:46;99498.66;;;24.49;66.26
80853;BME280;70270;43.434;28.338;2023-06-26T02:34:30;99476.25;;;24.32;66.34
80853;BME280;70270;43.434;28.338;2023-06-26T02:37:14;99500.28;;;24.50;66.17
80853;BME280;70270;43.434;28.338;2023-06-26T02:40:03;99389.06;;;23.88;66.23
80853;BME280;70270;43.434;28.338;2023-06-26T02:42:47;99508.91;;;24.62;65.89
80853;BME280;70270;43.434;28.338;2023-06-26T02:45:32;99496.38;;;24.64;66.23
80853;BME280;70270;43.434;28.338;2023-06-26T02:48:20;99484.06;;;24.57;65.99
80853;BME280;70270;43.434;28.338;2023-06-26T02:51:05;99490.25;;;24.54;66.22
80853;BME280;70270;43.434;28.338;2023-06-26T02:53:50;99498.94;;;24.61;66.39
80853;BME280;70270;43.434;28.338;2023-06-26T02:56:35;99487.38;;;24.59;66.30
80853;BME280;70270;43.434;28.338;2023-06-26T02:59:20;99503.88;;;24.64;66.51
80853;BME280;70270;43.434;28.338;2023-06-26T03:02:04;99497.22;;;24.65;66.43
80853;BME280;70270;43.434;28.338;2023-06-26T03:04:55;99493.22;;;24.71;65.90
80853;BME280;70270;43.434;28.338;2023-06-26T03:07:44;99481.91;;;24.67;65.85
80853;BME280;70270;43.434;28.338;2023-06-26T03:10:29;99374.53;;;24.10;65.71
80853;BME280;70270;43.434;28.338;2023-06-26T03:13:13;99490.22;;;24.81;65.66
80853;BME280;70270;43.434;28.338;2023-06-26T03:15:58;99492.00;;;24.91;65.60
80853;BME280;70270;43.434;28.338;2023-06-26T03:18:42;99471.53;;;24.73;65.55
80853;BME280;70270;43.434;28.338;2023-06-26T03:21:29;99504.41;;;24.93;65.54
80853;BME280;70270;43.434;28.338;2023-06-26T03:24:14;99504.09;;;24.95;65.37
80853;BME280;70270;43.434;28.338;2023-06-26T03:26:58;99391.56;;;24.31;65.24
80853;BME280;70270;43.434;28.338;2023-06-26T03:29:43;99497.63;;;24.99;65.02
80853;BME280;70270;43.434;28.338;2023-06-26T03:32:27;99502.66;;;24.97;65.68
80853;BME280;70270;43.434;28.338;2023-06-26T03:35:12;99473.50;;;24.86;65.18
80853;BME280;70270;43.434;28.338;2023-06-26T03:37:57;99508.09;;;25.02;65.42
80853;BME280;70270;43.434;28.338;2023-06-26T03:40:41;99502.94;;;25.09;65.16
80853;BME280;70270;43.434;28.338;2023-06-26T03:43:26;99490.19;;;25.08;64.89
80853;BME280;70270;43.434;28.338;2023-06-26T03:46:20;99529.00;;;25.22;64.66
80853;BME280;70270;43.434;28.338;2023-06-26T03:49:05;99497.16;;;25.20;64.46
80853;BME280;70270;43.434;28.338;2023-06-26T03:51:54;99432.44;;;24.88;64.05
80853;BME280;70270;43.434;28.338;2023-06-26T03:54:40;99472.69;;;25.22;64.10
80853;BME280;70270;43.434;28.338;2023-06-26T03:57:27;99498.13;;;25.37;64.30
80853;BME280;70270;43.434;28.338;2023-06-26T04:00:12;99501.81;;;25.46;64.01
80853;BME280;70270;43.434;28.338;2023-06-26T04:03:00;99465.88;;;25.28;63.54
80853;BME280;70270;43.434;28.338;2023-06-26T04:05:48;99509.00;;;25.47;63.86
80853;BME280;70270;43.434;28.338;2023-06-26T04:08:33;99498.69;;;25.48;63.76
80853;BME280;70270;43.434;28.338;2023-06-26T04:11:17;99497.47;;;25.54;63.42
80853;BME280;70270;43.434;28.338;2023-06-26T04:14:01;99493.56;;;25.55;63.38
80853;BME280;70270;43.434;28.338;2023-06-26T04:16:46;99493.31;;;25.65;62.47
80853;BME280;70270;43.434;28.338;2023-06-26T04:19:31;99461.84;;;25.70;62.17
80853;BME280;70270;43.434;28.338;2023-06-26T04:22:17;99494.81;;;25.93;61.89
80853;BME280;70270;43.434;28.338;2023-06-26T04:25:03;99505.28;;;25.96;62.25
80853;BME280;70270;43.434;28.338;2023-06-26T04:27:47;99470.78;;;25.89;61.55
80853;BME280;70270;43.434;28.338;2023-06-26T04:30:32;99397.19;;;25.47;61.82
80853;BME280;70270;43.434;28.338;2023-06-26T04:33:16;99495.09;;;26.14;61.39
80853;BME280;70270;43.434;28.338;2023-06-26T04:36:01;99505.78;;;26.21;61.35
80853;BME280;70270;43.434;28.338;2023-06-26T04:38:47;99495.56;;;26.38;60.88
80853;BME280;70270;43.434;28.338;2023-06-26T04:41:37;99496.28;;;26.52;60.18
80853;BME280;70270;43.434;28.338;2023-06-26T04:44:21;99488.63;;;26.58;60.39
80853;BME280;70270;43.434;28.338;2023-06-26T04:47:07;99482.06;;;26.54;59.53
80853;BME280;70270;43.434;28.338;2023-06-26T04:49:55;99492.75;;;26.69;59.30
80853;BME280;70270;43.434;28.338;2023-06-26T04:52:48;99463.28;;;26.68;59.02
80853;BME280;70270;43.434;28.338;2023-06-26T04:55:33;99462.81;;;26.66;58.73
80853;BME280;70270;43.434;28.338;2023-06-26T04:58:18;99500.50;;;26.89;58.62
80853;BME280;70270;43.434;28.338;2023-06-26T05:01:05;99498.25;;;26.91;58.70
80853;BME280;70270;43.434;28.338;2023-06-26T05:04:00;99481.66;;;26.78;58.97
80853;BME280;70270;43.434;28.338;2023-06-26T05:06:45;99492.81;;;26.86;58.65
80853;BME280;70270;43.434;28.338;2023-06-26T05:09:29;99505.94;;;27.03;58.50
80853;BME280;70270;43.434;28.338;2023-06-26T05:12:14;99507.25;;;27.06;57.89
80853;BME280;70270;43.434;28.338;2023-06-26T05:14:59;99439.38;;;26.50;57.66
80853;BME280;70270;43.434;28.338;2023-06-26T05:17:43;99525.56;;;26.98;57.57
80853;BME280;70270;43.434;28.338;2023-06-26T05:20:27;99493.25;;;26.71;57.76
80853;BME280;70270;43.434;28.338;2023-06-26T05:23:12;99511.22;;;26.74;58.14
80853;BME280;70270;43.434;28.338;2023-06-26T05:26:00;99523.19;;;26.74;59.07
80853;BME280;70270;43.434;28.338;2023-06-26T05:28:46;99525.31;;;26.77;58.17
80853;BME280;70270;43.434;28.338;2023-06-26T05:31:36;99540.34;;;26.76;58.27
80853;BME280;70270;43.434;28.338;2023-06-26T05:34:24;99526.38;;;26.98;57.91
80853;BME280;70270;43.434;28.338;2023-06-26T05:37:19;99488.31;;;26.68;57.25
80853;BME280;70270;43.434;28.338;2023-06-26T05:40:05;99513.75;;;26.84;57.39
80853;BME280;70270;43.434;28.338;2023-06-26T05:42:52;99519.09;;;26.80;57.90
80853;BME280;70270;43.434;28.338;2023-06-26T05:45:37;99529.13;;;26.90;57.77
80853;BME280;70270;43.434;28.338;2023-06-26T05:48:21;99533.75;;;27.03;57.20
80853;BME280;70270;43.434;28.338;2023-06-26T05:51:06;99533.75;;;27.03;57.27
80853;BME280;70270;43.434;28.338;2023-06-26T05:53:51;99543.41;;;27.06;56.51
80853;BME280;70270;43.434;28.338;2023-06-26T05:56:36;99509.19;;;26.88;56.42
80853;BME280;70270;43.434;28.338;2023-06-26T05:59:21;99471.31;;;26.70;56.80
80853;BME280;70270;43.434;28.338;2023-06-26T06:02:06;99545.72;;;27.21;57.35
80853;BME280;70270;43.434;28.338;2023-06-26T06:04:50;99442.84;;;26.64;56.25
80853;BME280;70270;43.434;28.338;2023-06-26T06:07:35;99527.41;;;27.28;55.37
80853;BME280;70270;43.434;28.338;2023-06-26T06:10:20;99454.56;;;27.00;56.10
80853;BME280;70270;43.434;28.338;2023-06-26T06:13:04;99544.78;;;27.34;55.74
80853;BME280;70270;43.434;28.338;2023-06-26T06:15:51;99543.78;;;27.30;55.99
80853;BME280;70270;43.434;28.338;2023-06-26T06:18:37;99546.38;;;27.18;56.05
80853;BME280;70270;43.434;28.338;2023-06-26T06:21:21;99556.19;;;27.07;55.47
80853;BME280;70270;43.434;28.338;2023-06-26T06:24:06;99554.72;;;27.18;55.39
80853;BME280;70270;43.434;28.338;2023-06-26T06:26:51;99545.41;;;27.14;55.27
80853;BME280;70270;43.434;28.338;2023-06-26T06:29:35;99550.63;;;27.07;55.92
80853;BME280;70270;43.434;28.338;2023-06-26T06:32:22;99462.31;;;26.56;55.57
80853;BME280;70270;43.434;28.338;2023-06-26T06:35:07;99551.63;;;27.11;56.00
80853;BME280;70270;43.434;28.338;2023-06-26T06:37:53;99557.84;;;27.08;55.34
80853;BME280;70270;43.434;28.338;2023-06-26T06:40:38;99551.09;;;27.00;56.26
80853;BME280;70270;43.434;28.338;2023-06-26T06:43:22;99520.81;;;26.90;55.44
80853;BME280;70270;43.434;28.338;2023-06-26T06:46:07;99552.28;;;27.25;54.99
80853;BME280;70270;43.434;28.338;2023-06-26T06:48:53;99523.31;;;27.17;55.05
80853;BME280;70270;43.434;28.338;2023-06-26T06:51:37;99528.78;;;27.48;54.72
80853;BME280;70270;43.434;28.338;2023-06-26T06:54:26;99545.63;;;27.69;53.97
80853;BME280;70270;43.434;28.338;2023-06-26T06:57:11;99537.47;;;27.64;54.09
80853;BME280;70270;43.434;28.338;2023-06-26T06:59:56;99545.97;;;27.59;53.30
80853;BME280;70270;43.434;28.338;2023-06-26T07:02:42;99540.41;;;27.67;53.14
80853;BME280;70270;43.434;28.338;2023-06-26T07:05:28;99549.06;;;27.74;53.53
80853;BME280;70270;43.434;28.338;2023-06-26T07:08:12;99549.44;;;27.64;53.35
80853;BME280;70270;43.434;28.338;2023-06-26T07:10:57;99545.00;;;27.55;53.37
80853;BME280;70270;43.434;28.338;2023-06-26T07:13:41;99555.97;;;27.68;53.18
80853;BME280;70270;43.434;28.338;2023-06-26T07:16:25;99549.59;;;27.68;53.03
80853;BME280;70270;43.434;28.338;2023-06-26T07:19:10;99541.06;;;27.56;53.24
80853;BME280;70270;43.434;28.338;2023-06-26T07:21:54;99569.38;;;27.66;53.48
80853;BME280;70270;43.434;28.338;2023-06-26T07:24:39;99538.75;;;27.49;53.29
80853;BME280;70270;43.434;28.338;2023-06-26T07:27:24;99556.28;;;27.75;52.69
80853;BME280;70270;43.434;28.338;2023-06-26T07:30:09;99544.78;;;28.03;52.01
80853;BME280;70270;43.434;28.338;2023-06-26T07:32:53;99564.47;;;28.15;51.09
80853;BME280;70270;43.434;28.338;2023-06-26T07:35:38;99525.63;;;28.10;51.09
80853;BME280;70270;43.434;28.338;2023-06-26T07:38:22;99541.78;;;28.33;50.49
80853;BME280;70270;43.434;28.338;2023-06-26T07:41:07;99544.97;;;28.61;49.47
80853;BME280;70270;43.434;28.338;2023-06-26T07:43:51;99461.81;;;28.25;48.88
80853;BME280;70270;43.434;28.338;2023-06-26T07:46:36;99561.59;;;28.96;48.60
80853;BME280;70270;43.434;28.338;2023-06-26T07:49:20;99456.56;;;28.62;47.73
80853;BME280;70270;43.434;28.338;2023-06-26T07:52:05;99538.09;;;29.26;46.87
80853;BME280;70270;43.434;28.338;2023-06-26T07:54:50;99545.81;;;29.50;46.62
80853;BME280;70270;43.434;28.338;2023-06-26T07:57:34;99560.81;;;29.66;46.38
80853;BME280;70270;43.434;28.338;2023-06-26T08:00:19;99546.84;;;29.66;46.28
80853;BME280;70270;43.434;28.338;2023-06-26T08:03:03;99552.31;;;29.62;46.81
80853;BME280;70270;43.434;28.338;2023-06-26T08:05:48;99555.41;;;29.82;46.17
80853;BME280;70270;43.434;28.338;2023-06-26T08:08:33;99486.22;;;29.66;45.32
80853;BME280;70270;43.434;28.338;2023-06-26T08:11:17;99556.09;;;29.79;46.05
80853;BME280;70270;43.434;28.338;2023-06-26T08:14:01;99561.31;;;29.89;45.63
80853;BME280;70270;43.434;28.338;2023-06-26T08:16:47;99562.28;;;29.93;46.22
80853;BME280;70270;43.434;28.338;2023-06-26T08:19:31;99463.28;;;29.61;45.85
80853;BME280;70270;43.434;28.338;2023-06-26T08:22:15;99555.63;;;30.30;45.33
80853;BME280;70270;43.434;28.338;2023-06-26T08:25:01;99511.22;;;30.16;45.03
80853;BME280;70270;43.434;28.338;2023-06-26T08:27:46;99455.66;;;29.82;44.90
80853;BME280;70270;43.434;28.338;2023-06-26T08:30:32;99546.41;;;30.62;44.47
80853;BME280;70270;43.434;28.338;2023-06-26T08:33:16;99482.47;;;30.28;43.13
80853;BME280;70270;43.434;28.338;2023-06-26T08:36:00;99543.03;;;30.57;44.30
80853;BME280;70270;43.434;28.338;2023-06-26T08:38:45;99438.25;;;29.97;43.67
80853;BME280;70270;43.434;28.338;2023-06-26T08:41:29;99543.16;;;30.60;44.28
80853;BME280;70270;43.434;28.338;2023-06-26T08:44:14;99535.69;;;30.64;44.13
80853;BME280;70270;43.434;28.338;2023-06-26T08:47:03;99540.00;;;30.74;43.99
80853;BME280;70270;43.434;28.338;2023-06-26T08:49:55;99510.97;;;30.54;43.74
80853;BME280;70270;43.434;28.338;2023-06-26T08:52:56;99537.09;;;30.71;42.84
80853;BME280;70270;43.434;28.338;2023-06-26T08:55:42;99557.81;;;30.70;43.78
80853;BME280;70270;43.434;28.338;2023-06-26T08:58:27;99541.03;;;30.82;42.55
80853;BME280;70270;43.434;28.338;2023-06-26T09:01:12;99439.13;;;30.34;41.88
80853;BME280;70270;43.434;28.338;2023-06-26T09:03:57;99446.38;;;30.35;42.41
80853;BME280;70270;43.434;28.338;2023-06-26T09:06:41;99547.72;;;30.77;41.97
80853;BME280;70270;43.434;28.338;2023-06-26T09:09:26;99546.19;;;30.80;41.83
80853;BME280;70270;43.434;28.338;2023-06-26T09:12:10;99514.47;;;30.76;41.40
80853;BME280;70270;43.434;28.338;2023-06-26T09:14:56;99526.50;;;30.88;41.61
80853;BME280;70270;43.434;28.338;2023-06-26T09:17:42;99532.44;;;31.11;41.72
80853;BME280;70270;43.434;28.338;2023-06-26T09:20:27;99452.72;;;30.44;40.94
80853;BME280;70270;43.434;28.338;2023-06-26T09:23:14;99518.91;;;30.77;41.36
80853;BME280;70270;43.434;28.338;2023-06-26T09:25:59;99521.75;;;31.01;40.87
80853;BME280;70270;43.434;28.338;2023-06-26T09:28:43;99524.28;;;31.06;40.57
80853;BME280;70270;43.434;28.338;2023-06-26T09:31:28;99529.41;;;31.28;40.81
80853;BME280;70270;43.434;28.338;2023-06-26T09:34:13;99522.66;;;30.93;41.65
80853;BME280;70270;43.434;28.338;2023-06-26T09:36:57;99542.94;;;31.02;41.58
80853;BME280;70270;43.434;28.338;2023-06-26T09:39:42;99511.69;;;31.00;39.67
80853;BME280;70270;43.434;28.338;2023-06-26T09:42:27;99526.91;;;31.39;39.14
80853;BME280;70270;43.434;28.338;2023-06-26T09:45:18;99533.91;;;31.57;38.51
80853;BME280;70270;43.434;28.338;2023-06-26T09:48:03;99539.16;;;31.58;39.53
80853;BME280;70270;43.434;28.338;2023-06-26T09:50:48;99445.44;;;31.04;38.01
80853;BME280;70270;43.434;28.338;2023-06-26T09:53:35;99540.88;;;31.63;37.96
80853;BME280;70270;43.434;28.338;2023-06-26T09:56:20;99542.31;;;31.57;38.75
80853;BME280;70270;43.434;28.338;2023-06-26T09:59:07;99535.19;;;31.47;41.24
80853;BME280;70270;43.434;28.338;2023-06-26T10:01:58;99549.34;;;31.27;42.08
80853;BME280;70270;43.434;28.338;2023-06-26T10:04:43;99540.38;;;30.97;42.70
80853;BME280;70270;43.434;28.338;2023-06-26T10:07:27;99464.31;;;30.34;43.39
80853;BME280;70270;43.434;28.338;2023-06-26T10:10:12;99543.94;;;30.16;44.73
80853;BME280;70270;43.434;28.338;2023-06-26T10:13:04;99545.88;;;30.03;45.61
80853;BME280;70270;43.434;28.338;2023-06-26T10:15:53;99472.16;;;29.42;46.08
80853;BME280;70270;43.434;28.338;2023-06-26T10:18:39;99467.28;;;29.10;46.53
80853;BME280;70270;43.434;28.338;2023-06-26T10:21:26;99565.94;;;29.43;46.78
80853;BME280;70270;43.434;28.338;2023-06-26T10:24:13;99564.06;;;29.18;47.08
80853;BME280;70270;43.434;28.338;2023-06-26T10:27:04;99569.66;;;29.18;48.60
80853;BME280;70270;43.434;28.338;2023-06-26T10:29:54;99524.41;;;28.83;51.95
80853;BME280;70270;43.434;28.338;2023-06-26T10:32:40;99585.47;;;28.76;53.74
80853;BME280;70270;43.434;28.338;2023-06-26T10:35:25;99576.63;;;28.74;54.02
80853;BME280;70270;43.434;28.338;2023-06-26T10:38:10;99574.53;;;28.45;54.76
80853;BME280;70270;43.434;28.338;2023-06-26T10:40:55;99584.25;;;28.39;55.44
80853;BME280;70270;43.434;28.338;2023-06-26T10:43:40;99575.88;;;28.39;55.47
80853;BME280;70270;43.434;28.338;2023-06-26T10:46:24;99586.91;;;28.18;55.32
80853;BME280;70270;43.434;28.338;2023-06-26T10:49:12;99575.47;;;28.11;56.04
80853;BME280;70270;43.434;28.338;2023-06-26T10:52:00;99415.31;;;27.11;55.72
80853;BME280;70270;43.434;28.338;2023-06-26T10:54:45;99584.13;;;28.10;55.70
80853;BME280;70270;43.434;28.338;2023-06-26T10:57:29;99586.41;;;28.08;56.54
80853;BME280;70270;43.434;28.338;2023-06-26T11:00:16;99581.19;;;28.15;56.13
80853;BME280;70270;43.434;28.338;2023-06-26T11:03:01;99583.13;;;28.23;57.03
80853;BME280;70270;43.434;28.338;2023-06-26T11:05:45;99574.94;;;28.18;56.60
80853;BME280;70270;43.434;28.338;2023-06-26T11:08:55;99568.06;;;28.07;56.95
80853;BME280;70270;43.434;28.338;2023-06-26T11:14:45;99478.00;;;27.68;56.77
80853;BME280;70270;43.434;28.338;2023-06-26T11:17:30;99570.66;;;28.29;56.65
80853;BME280;70270;43.434;28.338;2023-06-26T11:20:15;99562.81;;;28.22;57.18
80853;BME280;70270;43.434;28.338;2023-06-26T11:23:00;99570.66;;;28.29;56.25
80853;BME280;70270;43.434;28.338;2023-06-26T11:25:45;99566.94;;;28.16;56.76
80853;BME280;70270;43.434;28.338;2023-06-26T11:28:29;99539.72;;;28.13;56.04
80853;BME280;70270;43.434;28.338;2023-06-26T11:31:28;99581.06;;;28.58;56.07
80853;BME280;70270;43.434;28.338;2023-06-26T11:34:14;99544.53;;;28.51;55.13
80853;BME280;70270;43.434;28.338;2023-06-26T11:36:59;99544.47;;;28.68;55.07
80853;BME280;70270;43.434;28.338;2023-06-26T11:39:45;99553.34;;;28.70;53.99
80853;BME280;70270;43.434;28.338;2023-06-26T11:42:29;99544.94;;;28.78;53.52
80853;BME280;70270;43.434;28.338;2023-06-26T11:45:14;99503.34;;;28.56;53.05
80853;BME280;70270;43.434;28.338;2023-06-26T11:48:01;99542.84;;;28.58;52.81
80853;BME280;70270;43.434;28.338;2023-06-26T11:50:45;99574.66;;;28.66;53.50
80853;BME280;70270;43.434;28.338;2023-06-26T11:53:29;99553.31;;;28.78;51.68
80853;BME280;70270;43.434;28.338;2023-06-26T11:56:16;99463.84;;;28.08;52.02
80853;BME280;70270;43.434;28.338;2023-06-26T11:59:05;99486.28;;;28.20;53.51
80853;BME280;70270;43.434;28.338;2023-06-26T12:01:51;99547.59;;;28.66;53.06
80853;BME280;70270;43.434;28.338;2023-06-26T12:04:37;99554.00;;;28.58;52.94
80853;BME280;70270;43.434;28.338;2023-06-26T12:07:23;99560.72;;;28.57;53.03
80853;BME280;70270;43.434;28.338;2023-06-26T12:10:09;99556.13;;;28.61;53.46
80853;BME280;70270;43.434;28.338;2023-06-26T12:12:54;99573.56;;;28.41;52.21
80853;BME280;70270;43.434;28.338;2023-06-26T12:15:42;99550.50;;;28.32;51.75
80853;BME280;70270;43.434;28.338;2023-06-26T12:18:34;99518.75;;;28.16;51.12
80853;BME280;70270;43.434;28.338;2023-06-26T12:24:22;99560.88;;;28.69;50.40
80853;BME280;70270;43.434;28.338;2023-06-26T12:27:09;99473.84;;;28.09;50.15
80853;BME280;70270;43.434;28.338;2023-06-26T12:29:54;99569.59;;;28.59;51.39
80853;BME280;70270;43.434;28.338;2023-06-26T12:32:40;99572.22;;;28.64;50.31
80853;BME280;70270;43.434;28.338;2023-06-26T12:35:24;99550.06;;;28.68;49.66
80853;BME280;70270;43.434;28.338;2023-06-26T12:38:09;99539.78;;;28.51;50.35
80853;BME280;70270;43.434;28.338;2023-06-26T12:40:56;99553.41;;;28.44;50.65
80853;BME280;70270;43.434;28.338;2023-06-26T12:43:44;99557.81;;;28.45;51.72
80853;BME280;70270;43.434;28.338;2023-06-26T12:46:37;99571.47;;;28.38;52.11
80853;BME280;70270;43.434;28.338;2023-06-26T12:49:33;99562.13;;;28.34;53.14
80853;BME280;70270;43.434;28.338;2023-06-26T12:52:20;99469.81;;;27.63;53.14
80853;BME280;70270;43.434;28.338;2023-06-26T12:55:05;99482.41;;;27.78;53.76
80853;BME280;70270;43.434;28.338;2023-06-26T12:57:50;99568.22;;;28.27;53.79
80853;BME280;70270;43.434;28.338;2023-06-26T13:00:35;99572.00;;;28.23;53.21
80853;BME280;70270;43.434;28.338;2023-06-26T13:03:20;99573.63;;;28.24;53.38
80853;BME280;70270;43.434;28.338;2023-06-26T13:06:07;99478.50;;;27.70;53.74
80853;BME280;70270;43.434;28.338;2023-06-26T13:08:51;99573.31;;;28.17;53.39
80853;BME280;70270;43.434;28.338;2023-06-26T13:11:37;99580.53;;;28.18;53.33
80853;BME280;70270;43.434;28.338;2023-06-26T13:14:21;99574.63;;;28.11;53.54
80853;BME280;70270;43.434;28.338;2023-06-26T13:17:06;99594.59;;;28.30;53.33
80853;BME280;70270;43.434;28.338;2023-06-26T13:19:50;99585.78;;;28.11;52.67
80853;BME280;70270;43.434;28.338;2023-06-26T13:22:35;99589.84;;;28.05;52.28
80853;BME280;70270;43.434;28.338;2023-06-26T13:25:20;99531.72;;;27.77;53.12
80853;BME280;70270;43.434;28.338;2023-06-26T13:28:08;99595.28;;;28.18;52.81
80853;BME280;70270;43.434;28.338;2023-06-26T13:30:52;99539.91;;;27.65;51.46
80853;BME280;70270;43.434;28.338;2023-06-26T13:33:37;99582.81;;;27.99;52.02
80853;BME280;70270;43.434;28.338;2023-06-26T13:36:21;99595.59;;;28.17;51.77
80853;BME280;70270;43.434;28.338;2023-06-26T13:39:06;99581.19;;;28.15;50.50
80853;BME280;70270;43.434;28.338;2023-06-26T13:41:51;99531.53;;;27.91;49.89
80853;BME280;70270;43.434;28.338;2023-06-26T13:44:36;99590.94;;;28.47;50.02
80853;BME280;70270;43.434;28.338;2023-06-26T13:47:21;99586.19;;;28.56;51.02
80853;BME280;70270;43.434;28.338;2023-06-26T13:50:05;99576.50;;;28.53;52.11
80853;BME280;70270;43.434;28.338;2023-06-26T13:52:50;99601.63;;;28.45;53.14
80853;BME280;70270;43.434;28.338;2023-06-26T13:55:35;99600.44;;;28.54;51.64
80853;BME280;70270;43.434;28.338;2023-06-26T13:58:19;99513.97;;;28.08;50.67
80853;BME280;70270;43.434;28.338;2023-06-26T14:01:07;99496.47;;;27.90;50.68
80853;BME280;70270;43.434;28.338;2023-06-26T14:03:52;99592.91;;;28.46;50.83
80853;BME280;70270;43.434;28.338;2023-06-26T14:06:37;99596.50;;;28.55;51.25
80853;BME280;70270;43.434;28.338;2023-06-26T14:09:21;99519.88;;;28.15;51.64
80853;BME280;70270;43.434;28.338;2023-06-26T14:12:07;99582.19;;;28.65;52.20
80853;BME280;70270;43.434;28.338;2023-06-26T14:14:51;99584.28;;;28.86;51.66
80853;BME280;70270;43.434;28.338;2023-06-26T14:17:36;99610.78;;;29.09;50.10
80853;BME280;70270;43.434;28.338;2023-06-26T14:20:20;99595.06;;;28.96;50.63
80853;BME280;70270;43.434;28.338;2023-06-26T14:23:07;99506.75;;;28.70;49.57
80853;BME280;70270;43.434;28.338;2023-06-26T14:25:51;99604.81;;;29.48;48.66
80853;BME280;70270;43.434;28.338;2023-06-26T14:28:36;99594.69;;;29.64;48.22
80853;BME280;70270;43.434;28.338;2023-06-26T14:31:20;99595.63;;;29.68;47.14
80853;BME280;70270;43.434;28.338;2023-06-26T14:34:05;99589.59;;;29.87;47.38
80853;BME280;70270;43.434;28.338;2023-06-26T14:36:50;99577.91;;;30.06;46.82
80853;BME280;70270;43.434;28.338;2023-06-26T14:39:34;99576.09;;;30.22;45.83